sensor_id;sensor_type;location;lat;lon;timestamp;P1;durP1;ratioP1;P2;durP2;ratioP2
6823;SDS011;58633;49.470;11.004;2023-04-25T00:01:58;4.00;;;3.50;;
6823;SDS011;58633;49.470;11.004;2023-04-25T00:04:24;4.13;;;3.70;;
6823;SDS011;58633;49.470;11.004;2023-04-25T00:06:52;3.70;;;3.40;;
6823;SDS011;58633;49.470;11.004;2023-04-25T00:09:21;4.90;;;3.60;;
6823;SDS011;58633;49.470;11.004;2023-04-25T00:11:47;3.60;;;3.30;;
6823;SDS011;58633;49.470;11.004;2023-04-25T00:14:13;3.50;;;3.20;;
6823;SDS011;58633;49.470;11.004;2023-04-25T00:16:39;4.77;;;3.63;;
6823;SDS011;58633;49.470;11.004;2023-04-25T00:19:06;3.63;;;3.33;;
6823;SDS011;58633;49.470;11.004;2023-04-25T00:21:32;3.60;;;3.30;;
6823;SDS011;58633;49.470;11.004;2023-04-25T00:23:58;4.10;;;3.27;;
6823;SDS011;58633;49.470;11.004;2023-04-25T00:26:24;3.70;;;3.40;;
6823;SDS011;58633;49.470;11.004;2023-04-25T00:28:50;5.17;;;3.40;;
6823;SDS011;58633;49.470;11.004;2023-04-25T00:31:16;3.60;;;3.30;;
6823;SDS011;58633;49.470;11.004;2023-04-25T00:33:41;3.90;;;3.40;;
6823;SDS011;58633;49.470;11.004;2023-04-25T00:36:07;3.63;;;3.33;;
6823;SDS011;58633;49.470;11.004;2023-04-25T00:38:32;4.80;;;3.43;;
6823;SDS011;58633;49.470;11.004;2023-04-25T00:40:58;4.97;;;3.60;;
6823;SDS011;58633;49.470;11.004;2023-04-25T00:43:25;5.27;;;3.37;;
6823;SDS011;58633;49.470;11.004;2023-04-25T00:45:51;3.63;;;3.03;;
6823;SDS011;58633;49.470;11.004;2023-04-25T00:48:18;4.00;;;3.33;;
6823;SDS011;58633;49.470;11.004;2023-04-25T00:50:48;3.90;;;3.37;;
6823;SDS011;58633;49.470;11.004;2023-04-25T00:53:19;4.50;;;3.30;;
6823;SDS011;58633;49.470;11.004;2023-04-25T00:55:45;3.80;;;3.30;;
6823;SDS011;58633;49.470;11.004;2023-04-25T00:58:11;3.40;;;3.10;;
6823;SDS011;58633;49.470;11.004;2023-04-25T01:00:36;3.83;;;3.20;;
6823;SDS011;58633;49.470;11.004;2023-04-25T01:03:02;3.40;;;3.10;;
6823;SDS011;58633;49.470;11.004;2023-04-25T01:05:28;3.80;;;3.37;;
6823;SDS011;58633;49.470;11.004;2023-04-25T01:07:54;3.80;;;3.20;;
6823;SDS011;58633;49.470;11.004;2023-04-25T01:10:20;4.57;;;3.37;;
6823;SDS011;58633;49.470;11.004;2023-04-25T01:12:46;3.50;;;3.20;;
6823;SDS011;58633;49.470;11.004;2023-04-25T01:15:12;4.93;;;2.78;;
6823;SDS011;58633;49.470;11.004;2023-04-25T01:17:37;3.40;;;3.00;;
6823;SDS011;58633;49.470;11.004;2023-04-25T01:20:04;3.20;;;2.67;;
6823;SDS011;58633;49.470;11.004;2023-04-25T01:22:32;3.43;;;2.90;;
6823;SDS011;58633;49.470;11.004;2023-04-25T01:24:58;3.23;;;2.93;;
6823;SDS011;58633;49.470;11.004;2023-04-25T01:27:25;4.23;;;3.10;;
6823;SDS011;58633;49.470;11.004;2023-04-25T01:29:50;3.30;;;3.00;;
6823;SDS011;58633;49.470;11.004;2023-04-25T01:32:16;3.10;;;2.90;;
6823;SDS011;58633;49.470;11.004;2023-04-25T01:34:43;3.37;;;3.07;;
6823;SDS011;58633;49.470;11.004;2023-04-25T01:37:08;3.83;;;3.20;;
6823;SDS011;58633;49.470;11.004;2023-04-25T01:39:34;3.40;;;3.10;;
6823;SDS011;58633;49.470;11.004;2023-04-25T01:42:00;4.00;;;3.00;;
6823;SDS011;58633;49.470;11.004;2023-04-25T01:44:26;4.40;;;3.10;;
6823;SDS011;58633;49.470;11.004;2023-04-25T01:46:52;3.17;;;2.93;;
6823;SDS011;58633;49.470;11.004;2023-04-25T01:49:18;2.93;;;2.73;;
6823;SDS011;58633;49.470;11.004;2023-04-25T01:51:43;3.10;;;2.90;;
6823;SDS011;58633;49.470;11.004;2023-04-25T01:54:09;3.40;;;3.10;;
6823;SDS011;58633;49.470;11.004;2023-04-25T01:56:37;2.77;;;2.57;;
6823;SDS011;58633;49.470;11.004;2023-04-25T01:59:03;4.00;;;3.17;;
6823;SDS011;58633;49.470;11.004;2023-04-25T02:01:30;3.47;;;3.17;;
6823;SDS011;58633;49.470;11.004;2023-04-25T02:03:56;3.53;;;3.23;;
6823;SDS011;58633;49.470;11.004;2023-04-25T02:06:21;3.23;;;2.93;;
6823;SDS011;58633;49.470;11.004;2023-04-25T02:08:47;5.23;;;3.70;;
6823;SDS011;58633;49.470;11.004;2023-04-25T02:11:12;3.63;;;3.17;;
6823;SDS011;58633;49.470;11.004;2023-04-25T02:13:38;4.63;;;3.57;;
6823;SDS011;58633;49.470;11.004;2023-04-25T02:16:03;4.37;;;3.60;;
6823;SDS011;58633;49.470;11.004;2023-04-25T02:18:29;3.70;;;3.27;;
6823;SDS011;58633;49.470;11.004;2023-04-25T02:20:57;3.90;;;3.40;;
6823;SDS011;58633;49.470;11.004;2023-04-25T02:23:24;3.70;;;3.30;;
6823;SDS011;58633;49.470;11.004;2023-04-25T02:25:49;4.60;;;3.47;;
6823;SDS011;58633;49.470;11.004;2023-04-25T02:28:15;4.20;;;3.80;;
6823;SDS011;58633;49.470;11.004;2023-04-25T02:30:41;4.37;;;3.67;;
6823;SDS011;58633;49.470;11.004;2023-04-25T02:33:06;3.90;;;3.40;;
6823;SDS011;58633;49.470;11.004;2023-04-25T02:35:32;4.37;;;3.37;;
6823;SDS011;58633;49.470;11.004;2023-04-25T02:37:57;4.37;;;3.40;;
6823;SDS011;58633;49.470;11.004;2023-04-25T02:40:23;4.33;;;3.60;;
6823;SDS011;58633;49.470;11.004;2023-04-25T02:42:48;3.87;;;3.53;;
6823;SDS011;58633;49.470;11.004;2023-04-25T02:45:14;4.20;;;3.80;;
6823;SDS011;58633;49.470;11.004;2023-04-25T02:47:40;3.97;;;3.53;;
6823;SDS011;58633;49.470;11.004;2023-04-25T02:50:05;5.73;;;3.90;;
6823;SDS011;58633;49.470;11.004;2023-04-25T02:52:31;4.20;;;3.80;;
6823;SDS011;58633;49.470;11.004;2023-04-25T02:54:57;4.37;;;3.97;;
6823;SDS011;58633;49.470;11.004;2023-04-25T02:57:22;4.13;;;3.57;;
6823;SDS011;58633;49.470;11.004;2023-04-25T02:59:48;6.07;;;4.20;;
6823;SDS011;58633;49.470;11.004;2023-04-25T03:02:13;4.47;;;3.93;;
6823;SDS011;58633;49.470;11.004;2023-04-25T03:04:39;4.97;;;4.47;;
6823;SDS011;58633;49.470;11.004;2023-04-25T03:07:05;5.87;;;4.40;;
6823;SDS011;58633;49.470;11.004;2023-04-25T03:09:30;5.37;;;4.20;;
6823;SDS011;58633;49.470;11.004;2023-04-25T03:11:56;5.50;;;4.57;;
6823;SDS011;58633;49.470;11.004;2023-04-25T03:14:22;5.77;;;4.20;;
6823;SDS011;58633;49.470;11.004;2023-04-25T03:16:47;5.73;;;4.63;;
6823;SDS011;58633;49.470;11.004;2023-04-25T03:19:13;5.63;;;4.53;;
6823;SDS011;58633;49.470;11.004;2023-04-25T03:21:40;5.23;;;4.40;;
6823;SDS011;58633;49.470;11.004;2023-04-25T03:24:06;5.10;;;4.60;;
6823;SDS011;58633;49.470;11.004;2023-04-25T03:26:31;5.33;;;4.83;;
6823;SDS011;58633;49.470;11.004;2023-04-25T03:28:57;6.17;;;5.10;;
6823;SDS011;58633;49.470;11.004;2023-04-25T03:31:23;6.23;;;5.30;;
6823;SDS011;58633;49.470;11.004;2023-04-25T03:33:48;7.07;;;5.43;;
6823;SDS011;58633;49.470;11.004;2023-04-25T03:36:14;7.10;;;5.17;;
6823;SDS011;58633;49.470;11.004;2023-04-25T03:38:39;7.27;;;5.27;;
6823;SDS011;58633;49.470;11.004;2023-04-25T03:41:06;6.63;;;5.43;;
6823;SDS011;58633;49.470;11.004;2023-04-25T03:43:32;7.00;;;5.50;;
6823;SDS011;58633;49.470;11.004;2023-04-25T03:45:57;8.23;;;5.87;;
6823;SDS011;58633;49.470;11.004;2023-04-25T03:48:23;7.30;;;5.60;;
6823;SDS011;58633;49.470;11.004;2023-04-25T03:50:50;7.43;;;5.83;;
6823;SDS011;58633;49.470;11.004;2023-04-25T03:53:16;6.60;;;5.53;;
6823;SDS011;58633;49.470;11.004;2023-04-25T03:55:42;6.87;;;5.37;;
6823;SDS011;58633;49.470;11.004;2023-04-25T03:58:07;7.43;;;5.63;;
6823;SDS011;58633;49.470;11.004;2023-04-25T04:00:33;8.00;;;5.63;;
6823;SDS011;58633;49.470;11.004;2023-04-25T04:02:59;7.10;;;5.27;;
6823;SDS011;58633;49.470;11.004;2023-04-25T04:05:25;6.37;;;5.20;;
6823;SDS011;58633;49.470;11.004;2023-04-25T04:07:51;7.30;;;5.73;;
6823;SDS011;58633;49.470;11.004;2023-04-25T04:10:16;7.30;;;5.77;;
6823;SDS011;58633;49.470;11.004;2023-04-25T04:12:42;6.63;;;5.80;;
6823;SDS011;58633;49.470;11.004;2023-04-25T04:15:07;8.20;;;6.23;;
6823;SDS011;58633;49.470;11.004;2023-04-25T04:17:33;6.57;;;5.67;;
6823;SDS011;58633;49.470;11.004;2023-04-25T04:19:59;6.13;;;5.40;;
6823;SDS011;58633;49.470;11.004;2023-04-25T04:22:25;6.97;;;5.83;;
6823;SDS011;58633;49.470;11.004;2023-04-25T04:24:50;7.23;;;5.90;;
6823;SDS011;58633;49.470;11.004;2023-04-25T04:27:19;8.50;;;6.10;;
6823;SDS011;58633;49.470;11.004;2023-04-25T04:29:46;8.17;;;6.00;;
6823;SDS011;58633;49.470;11.004;2023-04-25T04:32:12;11.00;;;5.80;;
6823;SDS011;58633;49.470;11.004;2023-04-25T04:34:39;7.33;;;5.40;;
6823;SDS011;58633;49.470;11.004;2023-04-25T04:37:06;9.67;;;6.20;;
6823;SDS011;58633;49.470;11.004;2023-04-25T04:39:32;8.73;;;5.90;;
6823;SDS011;58633;49.470;11.004;2023-04-25T04:41:58;7.00;;;6.10;;
6823;SDS011;58633;49.470;11.004;2023-04-25T04:44:24;9.00;;;6.30;;
6823;SDS011;58633;49.470;11.004;2023-04-25T04:46:50;8.67;;;5.77;;
6823;SDS011;58633;49.470;11.004;2023-04-25T04:49:16;8.00;;;5.73;;
6823;SDS011;58633;49.470;11.004;2023-04-25T04:51:42;8.47;;;6.20;;
6823;SDS011;58633;49.470;11.004;2023-04-25T04:54:09;8.73;;;5.83;;
6823;SDS011;58633;49.470;11.004;2023-04-25T04:56:35;7.23;;;5.57;;
6823;SDS011;58633;49.470;11.004;2023-04-25T04:59:01;7.53;;;5.90;;
6823;SDS011;58633;49.470;11.004;2023-04-25T05:01:27;6.20;;;5.57;;
6823;SDS011;58633;49.470;11.004;2023-04-25T05:03:55;6.90;;;5.93;;
6823;SDS011;58633;49.470;11.004;2023-04-25T05:06:25;7.67;;;5.53;;
6823;SDS011;58633;49.470;11.004;2023-04-25T05:08:51;7.43;;;5.77;;
6823;SDS011;58633;49.470;11.004;2023-04-25T05:11:17;7.73;;;5.83;;
6823;SDS011;58633;49.470;11.004;2023-04-25T05:13:43;7.17;;;5.30;;
6823;SDS011;58633;49.470;11.004;2023-04-25T05:16:10;6.80;;;6.10;;
6823;SDS011;58633;49.470;11.004;2023-04-25T05:18:36;7.83;;;5.47;;
6823;SDS011;58633;49.470;11.004;2023-04-25T05:21:01;7.30;;;5.30;;
6823;SDS011;58633;49.470;11.004;2023-04-25T05:23:27;6.70;;;5.30;;
6823;SDS011;58633;49.470;11.004;2023-04-25T05:25:53;6.97;;;5.43;;
6823;SDS011;58633;49.470;11.004;2023-04-25T05:28:19;7.87;;;5.47;;
6823;SDS011;58633;49.470;11.004;2023-04-25T05:30:45;5.93;;;5.17;;
6823;SDS011;58633;49.470;11.004;2023-04-25T05:33:11;7.77;;;6.40;;
6823;SDS011;58633;49.470;11.004;2023-04-25T05:35:36;6.30;;;4.80;;
6823;SDS011;58633;49.470;11.004;2023-04-25T05:38:02;8.03;;;5.17;;
6823;SDS011;58633;49.470;11.004;2023-04-25T05:40:27;6.47;;;4.73;;
6823;SDS011;58633;49.470;11.004;2023-04-25T05:42:53;6.67;;;5.10;;
6823;SDS011;58633;49.470;11.004;2023-04-25T05:45:18;5.93;;;5.00;;
6823;SDS011;58633;49.470;11.004;2023-04-25T05:47:44;6.80;;;5.33;;
6823;SDS011;58633;49.470;11.004;2023-04-25T05:50:09;6.70;;;5.07;;
6823;SDS011;58633;49.470;11.004;2023-04-25T05:52:35;6.47;;;5.30;;
6823;SDS011;58633;49.470;11.004;2023-04-25T05:55:00;6.37;;;4.87;;
6823;SDS011;58633;49.470;11.004;2023-04-25T05:57:26;6.67;;;5.27;;
6823;SDS011;58633;49.470;11.004;2023-04-25T05:59:52;5.63;;;4.93;;
6823;SDS011;58633;49.470;11.004;2023-04-25T06:02:19;6.13;;;5.07;;
6823;SDS011;58633;49.470;11.004;2023-04-25T06:04:45;5.83;;;5.10;;
6823;SDS011;58633;49.470;11.004;2023-04-25T06:07:11;6.10;;;5.00;;
6823;SDS011;58633;49.470;11.004;2023-04-25T06:09:37;6.57;;;5.07;;
6823;SDS011;58633;49.470;11.004;2023-04-25T06:12:04;6.83;;;4.83;;
6823;SDS011;58633;49.470;11.004;2023-04-25T06:14:31;6.27;;;5.57;;
6823;SDS011;58633;49.470;11.004;2023-04-25T06:16:56;7.33;;;5.67;;
6823;SDS011;58633;49.470;11.004;2023-04-25T06:19:22;6.23;;;5.50;;
6823;SDS011;58633;49.470;11.004;2023-04-25T06:21:47;7.37;;;5.33;;
6823;SDS011;58633;49.470;11.004;2023-04-25T06:24:13;7.00;;;5.40;;
6823;SDS011;58633;49.470;11.004;2023-04-25T06:26:38;9.97;;;6.10;;
6823;SDS011;58633;49.470;11.004;2023-04-25T06:29:04;9.00;;;6.53;;
6823;SDS011;58633;49.470;11.004;2023-04-25T06:31:29;9.03;;;7.43;;
6823;SDS011;58633;49.470;11.004;2023-04-25T06:33:57;8.93;;;6.60;;
6823;SDS011;58633;49.470;11.004;2023-04-25T06:36:23;7.83;;;6.10;;
6823;SDS011;58633;49.470;11.004;2023-04-25T06:38:53;7.97;;;6.47;;
6823;SDS011;58633;49.470;11.004;2023-04-25T06:41:19;6.90;;;6.00;;
6823;SDS011;58633;49.470;11.004;2023-04-25T06:43:45;9.57;;;7.70;;
6823;SDS011;58633;49.470;11.004;2023-04-25T06:46:10;7.43;;;6.50;;
6823;SDS011;58633;49.470;11.004;2023-04-25T06:48:36;7.37;;;5.97;;
6823;SDS011;58633;49.470;11.004;2023-04-25T06:51:02;8.50;;;6.80;;
6823;SDS011;58633;49.470;11.004;2023-04-25T06:53:28;8.40;;;6.13;;
6823;SDS011;58633;49.470;11.004;2023-04-25T06:55:53;9.67;;;7.07;;
6823;SDS011;58633;49.470;11.004;2023-04-25T06:58:19;9.00;;;6.90;;
6823;SDS011;58633;49.470;11.004;2023-04-25T07:00:44;9.57;;;6.70;;
6823;SDS011;58633;49.470;11.004;2023-04-25T07:03:10;7.53;;;6.17;;
6823;SDS011;58633;49.470;11.004;2023-04-25T07:05:35;7.77;;;6.27;;
6823;SDS011;58633;49.470;11.004;2023-04-25T07:08:01;6.73;;;5.87;;
6823;SDS011;58633;49.470;11.004;2023-04-25T07:10:27;7.00;;;5.40;;
6823;SDS011;58633;49.470;11.004;2023-04-25T07:12:53;7.03;;;4.97;;
6823;SDS011;58633;49.470;11.004;2023-04-25T07:15:19;7.97;;;5.40;;
6823;SDS011;58633;49.470;11.004;2023-04-25T07:17:44;5.50;;;4.10;;
6823;SDS011;58633;49.470;11.004;2023-04-25T07:20:10;5.17;;;4.67;;
6823;SDS011;58633;49.470;11.004;2023-04-25T07:22:36;4.30;;;3.90;;
6823;SDS011;58633;49.470;11.004;2023-04-25T07:25:01;4.37;;;3.87;;
6823;SDS011;58633;49.470;11.004;2023-04-25T07:27:27;4.60;;;4.07;;
6823;SDS011;58633;49.470;11.004;2023-04-25T07:29:53;8.17;;;5.83;;
6823;SDS011;58633;49.470;11.004;2023-04-25T07:32:19;4.10;;;3.70;;
6823;SDS011;58633;49.470;11.004;2023-04-25T07:34:44;5.17;;;3.90;;
6823;SDS011;58633;49.470;11.004;2023-04-25T07:37:10;5.53;;;3.70;;
6823;SDS011;58633;49.470;11.004;2023-04-25T07:39:36;5.27;;;4.37;;
6823;SDS011;58633;49.470;11.004;2023-04-25T07:42:02;5.37;;;4.13;;
6823;SDS011;58633;49.470;11.004;2023-04-25T07:44:28;4.87;;;3.77;;
6823;SDS011;58633;49.470;11.004;2023-04-25T07:46:55;5.30;;;3.87;;
6823;SDS011;58633;49.470;11.004;2023-04-25T07:49:21;5.40;;;4.27;;
6823;SDS011;58633;49.470;11.004;2023-04-25T07:51:46;6.60;;;3.73;;
6823;SDS011;58633;49.470;11.004;2023-04-25T07:54:13;6.03;;;3.87;;
6823;SDS011;58633;49.470;11.004;2023-04-25T07:56:40;4.47;;;3.83;;
6823;SDS011;58633;49.470;11.004;2023-04-25T07:59:05;5.00;;;3.70;;
6823;SDS011;58633;49.470;11.004;2023-04-25T08:01:31;6.30;;;3.93;;
6823;SDS011;58633;49.470;11.004;2023-04-25T08:03:56;5.83;;;3.50;;
6823;SDS011;58633;49.470;11.004;2023-04-25T08:06:22;3.53;;;2.73;;
6823;SDS011;58633;49.470;11.004;2023-04-25T08:08:48;3.27;;;2.97;;
6823;SDS011;58633;49.470;11.004;2023-04-25T08:11:13;6.23;;;3.90;;
6823;SDS011;58633;49.470;11.004;2023-04-25T08:13:39;5.00;;;3.27;;
6823;SDS011;58633;49.470;11.004;2023-04-25T08:16:04;4.27;;;3.23;;
6823;SDS011;58633;49.470;11.004;2023-04-25T08:18:30;5.23;;;3.20;;
6823;SDS011;58633;49.470;11.004;2023-04-25T08:20:55;3.47;;;2.80;;
6823;SDS011;58633;49.470;11.004;2023-04-25T08:23:21;3.73;;;3.27;;
6823;SDS011;58633;49.470;11.004;2023-04-25T08:25:47;4.90;;;3.37;;
6823;SDS011;58633;49.470;11.004;2023-04-25T08:28:12;4.73;;;3.10;;
6823;SDS011;58633;49.470;11.004;2023-04-25T08:30:40;5.20;;;3.20;;
6823;SDS011;58633;49.470;11.004;2023-04-25T08:33:05;4.80;;;3.67;;
6823;SDS011;58633;49.470;11.004;2023-04-25T08:35:31;6.13;;;3.97;;
6823;SDS011;58633;49.470;11.004;2023-04-25T08:37:58;9.50;;;4.30;;
6823;SDS011;58633;49.470;11.004;2023-04-25T08:40:23;4.18;;;3.20;;
6823;SDS011;58633;49.470;11.004;2023-04-25T08:42:55;5.80;;;4.47;;
6823;SDS011;58633;49.470;11.004;2023-04-25T08:45:22;4.50;;;3.87;;
6823;SDS011;58633;49.470;11.004;2023-04-25T08:47:48;5.43;;;4.10;;
6823;SDS011;58633;49.470;11.004;2023-04-25T08:50:17;6.53;;;3.80;;
6823;SDS011;58633;49.470;11.004;2023-04-25T08:52:44;4.05;;;3.70;;
6823;SDS011;58633;49.470;11.004;2023-04-25T08:55:13;5.60;;;4.18;;
6823;SDS011;58633;49.470;11.004;2023-04-25T08:57:39;4.32;;;3.70;;
6823;SDS011;58633;49.470;11.004;2023-04-25T09:00:07;5.82;;;4.50;;
6823;SDS011;58633;49.470;11.004;2023-04-25T09:02:34;5.00;;;4.50;;
6823;SDS011;58633;49.470;11.004;2023-04-25T09:05:00;5.95;;;4.25;;
6823;SDS011;58633;49.470;11.004;2023-04-25T09:07:29;8.33;;;4.53;;
6823;SDS011;58633;49.470;11.004;2023-04-25T09:09:54;5.63;;;4.23;;
6823;SDS011;58633;49.470;11.004;2023-04-25T09:12:20;6.20;;;4.43;;
6823;SDS011;58633;49.470;11.004;2023-04-25T09:17:30;5.30;;;4.67;;
6823;SDS011;58633;49.470;11.004;2023-04-25T09:20:04;8.30;;;5.00;;
6823;SDS011;58633;49.470;11.004;2023-04-25T09:22:32;5.63;;;4.80;;
6823;SDS011;58633;49.470;11.004;2023-04-25T09:24:58;5.30;;;4.80;;
6823;SDS011;58633;49.470;11.004;2023-04-25T09:27:34;5.13;;;4.57;;
6823;SDS011;58633;49.470;11.004;2023-04-25T09:30:00;6.47;;;5.30;;
6823;SDS011;58633;49.470;11.004;2023-04-25T09:32:26;6.35;;;4.63;;
6823;SDS011;58633;49.470;11.004;2023-04-25T09:34:52;5.45;;;4.95;;
6823;SDS011;58633;49.470;11.004;2023-04-25T09:37:26;5.25;;;4.57;;
6823;SDS011;58633;49.470;11.004;2023-04-25T09:39:54;6.30;;;4.28;;
6823;SDS011;58633;49.470;11.004;2023-04-25T09:42:27;6.13;;;4.22;;
6823;SDS011;58633;49.470;11.004;2023-04-25T09:44:56;4.72;;;4.22;;
6823;SDS011;58633;49.470;11.004;2023-04-25T09:47:23;5.05;;;4.57;;
6823;SDS011;58633;49.470;11.004;2023-04-25T09:49:50;7.97;;;4.95;;
6823;SDS011;58633;49.470;11.004;2023-04-25T09:52:23;5.93;;;4.82;;
6823;SDS011;58633;49.470;11.004;2023-04-25T09:54:50;5.20;;;4.35;;
6823;SDS011;58633;49.470;11.004;2023-04-25T09:57:16;5.43;;;4.55;;
6823;SDS011;58633;49.470;11.004;2023-04-25T09:59:44;5.40;;;4.90;;
6823;SDS011;58633;49.470;11.004;2023-04-25T10:02:12;5.70;;;4.85;;
6823;SDS011;58633;49.470;11.004;2023-04-25T10:04:38;4.57;;;4.18;;
6823;SDS011;58633;49.470;11.004;2023-04-25T10:07:06;7.53;;;5.10;;
6823;SDS011;58633;49.470;11.004;2023-04-25T10:09:32;5.00;;;4.30;;
6823;SDS011;58633;49.470;11.004;2023-04-25T10:12:01;5.18;;;4.68;;
6823;SDS011;58633;49.470;11.004;2023-04-25T10:14:29;7.43;;;4.57;;
6823;SDS011;58633;49.470;11.004;2023-04-25T10:16:57;5.75;;;4.68;;
6823;SDS011;58633;49.470;11.004;2023-04-25T10:19:23;7.95;;;5.72;;
6823;SDS011;58633;49.470;11.004;2023-04-25T10:21:51;5.15;;;4.00;;
6823;SDS011;58633;49.470;11.004;2023-04-25T10:24:20;10.20;;;6.90;;
6823;SDS011;58633;49.470;11.004;2023-04-25T10:26:46;4.65;;;3.58;;
6823;SDS011;58633;49.470;11.004;2023-04-25T10:29:14;3.78;;;3.45;;
6823;SDS011;58633;49.470;11.004;2023-04-25T10:31:47;4.05;;;2.90;;
6823;SDS011;58633;49.470;11.004;2023-04-25T10:34:12;3.47;;;3.17;;
6823;SDS011;58633;49.470;11.004;2023-04-25T10:36:38;5.82;;;3.30;;
6823;SDS011;58633;49.470;11.004;2023-04-25T10:39:04;6.00;;;3.65;;
6823;SDS011;58633;49.470;11.004;2023-04-25T10:41:47;4.18;;;3.15;;
6823;SDS011;58633;49.470;11.004;2023-04-25T10:44:25;4.15;;;2.55;;
6823;SDS011;58633;49.470;11.004;2023-04-25T10:46:54;3.38;;;2.20;;
6823;SDS011;58633;49.470;11.004;2023-04-25T10:49:31;3.97;;;2.05;;
6823;SDS011;58633;49.470;11.004;2023-04-25T10:52:17;2.92;;;1.90;;
6823;SDS011;58633;49.470;11.004;2023-04-25T10:54:56;2.45;;;2.00;;
6823;SDS011;58633;49.470;11.004;2023-04-25T10:57:35;3.42;;;2.15;;
6823;SDS011;58633;49.470;11.004;2023-04-25T11:00:05;3.88;;;2.10;;
6823;SDS011;58633;49.470;11.004;2023-04-25T11:02:43;15.02;;;6.28;;
6823;SDS011;58633;49.470;11.004;2023-04-25T11:05:20;2.58;;;1.88;;
6823;SDS011;58633;49.470;11.004;2023-04-25T11:07:57;3.80;;;1.88;;
6823;SDS011;58633;49.470;11.004;2023-04-25T11:10:27;2.28;;;1.80;;
6823;SDS011;58633;49.470;11.004;2023-04-25T11:12:55;2.00;;;1.80;;
6823;SDS011;58633;49.470;11.004;2023-04-25T11:15:21;3.35;;;2.17;;
6823;SDS011;58633;49.470;11.004;2023-04-25T11:17:47;3.45;;;2.20;;
6823;SDS011;58633;49.470;11.004;2023-04-25T11:20:13;2.70;;;1.92;;
6823;SDS011;58633;49.470;11.004;2023-04-25T11:22:41;2.88;;;2.20;;
6823;SDS011;58633;49.470;11.004;2023-04-25T11:25:09;2.17;;;1.52;;
6823;SDS011;58633;49.470;11.004;2023-04-25T11:27:49;2.38;;;2.10;;
6823;SDS011;58633;49.470;11.004;2023-04-25T11:30:18;2.28;;;1.75;;
6823;SDS011;58633;49.470;11.004;2023-04-25T11:32:45;1.55;;;1.38;;
6823;SDS011;58633;49.470;11.004;2023-04-25T11:35:11;2.28;;;1.73;;
6823;SDS011;58633;49.470;11.004;2023-04-25T11:37:41;3.25;;;2.78;;
6823;SDS011;58633;49.470;11.004;2023-04-25T11:40:08;2.60;;;1.70;;
6823;SDS011;58633;49.470;11.004;2023-04-25T11:42:37;1.88;;;1.70;;
6823;SDS011;58633;49.470;11.004;2023-04-25T11:45:04;3.05;;;2.13;;
6823;SDS011;58633;49.470;11.004;2023-04-25T11:47:31;2.10;;;1.90;;
6823;SDS011;58633;49.470;11.004;2023-04-25T11:49:57;3.50;;;1.60;;
6823;SDS011;58633;49.470;11.004;2023-04-25T11:52:24;2.05;;;1.80;;
6823;SDS011;58633;49.470;11.004;2023-04-25T11:55:00;1.40;;;1.30;;
6823;SDS011;58633;49.470;11.004;2023-04-25T11:57:25;1.42;;;1.30;;
6823;SDS011;58633;49.470;11.004;2023-04-25T11:59:51;1.65;;;1.40;;
6823;SDS011;58633;49.470;11.004;2023-04-25T12:02:25;1.42;;;1.33;;
6823;SDS011;58633;49.470;11.004;2023-04-25T12:04:51;1.35;;;1.30;;
6823;SDS011;58633;49.470;11.004;2023-04-25T12:07:17;2.22;;;1.40;;
6823;SDS011;58633;49.470;11.004;2023-04-25T12:09:50;2.20;;;1.42;;
6823;SDS011;58633;49.470;11.004;2023-04-25T12:12:17;2.42;;;1.20;;
6823;SDS011;58633;49.470;11.004;2023-04-25T12:14:45;1.55;;;1.45;;
6823;SDS011;58633;49.470;11.004;2023-04-25T12:17:13;1.60;;;1.40;;
6823;SDS011;58633;49.470;11.004;2023-04-25T12:19:39;2.08;;;1.40;;
6823;SDS011;58633;49.470;11.004;2023-04-25T12:22:18;1.60;;;1.50;;
6823;SDS011;58633;49.470;11.004;2023-04-25T12:24:48;1.60;;;1.50;;
6823;SDS011;58633;49.470;11.004;2023-04-25T12:27:14;1.98;;;1.77;;
6823;SDS011;58633;49.470;11.004;2023-04-25T12:29:49;1.33;;;1.23;;
6823;SDS011;58633;49.470;11.004;2023-04-25T12:32:16;1.52;;;1.40;;
6823;SDS011;58633;49.470;11.004;2023-04-25T12:34:42;1.48;;;1.30;;
6823;SDS011;58633;49.470;11.004;2023-04-25T12:37:08;2.33;;;1.40;;
6823;SDS011;58633;49.470;11.004;2023-04-25T12:39:34;1.70;;;1.60;;
6823;SDS011;58633;49.470;11.004;2023-04-25T12:41:59;1.42;;;1.33;;
6823;SDS011;58633;49.470;11.004;2023-04-25T12:44:25;1.70;;;1.60;;
6823;SDS011;58633;49.470;11.004;2023-04-25T12:46:51;2.90;;;1.50;;
6823;SDS011;58633;49.470;11.004;2023-04-25T12:49:17;1.75;;;1.65;;
6823;SDS011;58633;49.470;11.004;2023-04-25T12:51:43;1.65;;;1.55;;
6823;SDS011;58633;49.470;11.004;2023-04-25T12:54:08;1.60;;;1.50;;
6823;SDS011;58633;49.470;11.004;2023-04-25T12:56:35;1.90;;;1.70;;
6823;SDS011;58633;49.470;11.004;2023-04-25T12:59:01;1.77;;;1.60;;
6823;SDS011;58633;49.470;11.004;2023-04-25T13:01:28;21.67;;;3.80;;
6823;SDS011;58633;49.470;11.004;2023-04-25T13:03:54;1.50;;;1.40;;
6823;SDS011;58633;49.470;11.004;2023-04-25T13:06:20;1.65;;;1.55;;
6823;SDS011;58633;49.470;11.004;2023-04-25T13:08:46;2.20;;;1.50;;
6823;SDS011;58633;49.470;11.004;2023-04-25T13:11:12;1.92;;;1.80;;
6823;SDS011;58633;49.470;11.004;2023-04-25T13:13:39;2.97;;;2.05;;
6823;SDS011;58633;49.470;11.004;2023-04-25T13:16:05;9.05;;;2.25;;
6823;SDS011;58633;49.470;11.004;2023-04-25T13:18:31;3.70;;;2.00;;
6823;SDS011;58633;49.470;11.004;2023-04-25T13:20:58;3.17;;;1.77;;
6823;SDS011;58633;49.470;11.004;2023-04-25T13:23:24;2.10;;;1.67;;
6823;SDS011;58633;49.470;11.004;2023-04-25T13:25:51;1.67;;;1.58;;
6823;SDS011;58633;49.470;11.004;2023-04-25T13:28:16;3.38;;;1.52;;
6823;SDS011;58633;49.470;11.004;2023-04-25T13:30:42;1.88;;;1.70;;
6823;SDS011;58633;49.470;11.004;2023-04-25T13:33:08;1.73;;;1.63;;
6823;SDS011;58633;49.470;11.004;2023-04-25T13:35:34;3.90;;;1.90;;
6823;SDS011;58633;49.470;11.004;2023-04-25T13:38:01;1.70;;;1.60;;
6823;SDS011;58633;49.470;11.004;2023-04-25T13:40:26;3.08;;;1.70;;
6823;SDS011;58633;49.470;11.004;2023-04-25T13:42:52;2.90;;;2.00;;
6823;SDS011;58633;49.470;11.004;2023-04-25T13:45:19;2.28;;;1.90;;
6823;SDS011;58633;49.470;11.004;2023-04-25T13:47:45;2.28;;;2.08;;
6823;SDS011;58633;49.470;11.004;2023-04-25T13:50:11;2.28;;;2.08;;
6823;SDS011;58633;49.470;11.004;2023-04-25T13:52:37;2.30;;;2.10;;
6823;SDS011;58633;49.470;11.004;2023-04-25T13:55:02;1.83;;;1.73;;
6823;SDS011;58633;49.470;11.004;2023-04-25T13:57:30;2.22;;;2.03;;
6823;SDS011;58633;49.470;11.004;2023-04-25T13:59:55;3.45;;;2.30;;
6823;SDS011;58633;49.470;11.004;2023-04-25T14:02:21;2.88;;;2.15;;
6823;SDS011;58633;49.470;11.004;2023-04-25T14:04:47;4.40;;;2.58;;
6823;SDS011;58633;49.470;11.004;2023-04-25T14:07:13;7.75;;;2.47;;
6823;SDS011;58633;49.470;11.004;2023-04-25T14:09:41;7.32;;;2.30;;
6823;SDS011;58633;49.470;11.004;2023-04-25T14:12:06;4.10;;;2.45;;
6823;SDS011;58633;49.470;11.004;2023-04-25T14:14:32;3.63;;;2.40;;
6823;SDS011;58633;49.470;11.004;2023-04-25T14:16:58;2.33;;;2.03;;
6823;SDS011;58633;49.470;11.004;2023-04-25T14:19:23;2.78;;;2.30;;
6823;SDS011;58633;49.470;11.004;2023-04-25T14:21:49;2.58;;;2.30;;
6823;SDS011;58633;49.470;11.004;2023-04-25T14:24:15;2.20;;;2.00;;
6823;SDS011;58633;49.470;11.004;2023-04-25T14:26:40;3.45;;;2.17;;
6823;SDS011;58633;49.470;11.004;2023-04-25T14:29:07;2.85;;;2.38;;
6823;SDS011;58633;49.470;11.004;2023-04-25T14:31:33;4.78;;;3.28;;
6823;SDS011;58633;49.470;11.004;2023-04-25T14:34:00;2.60;;;2.40;;
6823;SDS011;58633;49.470;11.004;2023-04-25T14:36:27;2.63;;;2.42;;
6823;SDS011;58633;49.470;11.004;2023-04-25T14:38:53;2.50;;;2.30;;
6823;SDS011;58633;49.470;11.004;2023-04-25T14:41:19;3.55;;;3.05;;
6823;SDS011;58633;49.470;11.004;2023-04-25T14:43:45;6.35;;;2.70;;
6823;SDS011;58633;49.470;11.004;2023-04-25T14:46:10;5.05;;;2.80;;
6823;SDS011;58633;49.470;11.004;2023-04-25T14:48:36;4.05;;;2.58;;